Tiempo atmosférico en la estación meteorológica de Santander, Cantabria (52 m.)



Fecha
DESCASC
Temp. máxima en grados centígrados (hora)
DESCASC
Temp. mínima en grados centígrados (hora)
DESCASC
Temp. media en grados centígrados
DESCASC
Racha de viento máxima en m/sg (hora)
DESCASC
Velocidad máxima media en intervalos de 10 minutos(hora)
DESCASC
Precipitaciones diarias en mm
DESCASC
Precipitaciones de 00:00 a 06:00 en mm
DESCASC
Precipitaciones de 06:00 a 12:00 en mm
DESCASC
Precipitaciones de 12:00 a 18:00 en mm
DESCASC
Precipitaciones de 18:00 a 24:00 en mm
DESCASC
25-04-2019 19.1 (16:50) 9.5 (23:40) 14.3 20.56 (20:10) 13.61 (20:10) 1.6 0 0.2 0 1.4
24-04-2019 18.5 (18:00) 8.5 (03:40) 13.5 18.33 (11:10) 10.83 (11:10) 0.6 0 0.2 0 0.4
23-04-2019 19 (01:00) 9 (23:50) 14 18.06 (20:50) 11.94 (20:50) 4.6 0 0 0 4.6
22-04-2019 18.3 (23:59) 10.9 (00:00) 14.6 10.83 (18:00) 8.89 (17:50) 0 0 0 0 0
21-04-2019 15.3 (12:50) 11.5 (00:00) 13.4 7.5 (12:20) 5.28 (13:50) 0 0 0 0 0
20-04-2019 15.5 (17:50) 11.3 (00:00) 13.4 6.11 (10:40) 4.44 (11:30) 0 0 0 0 0
19-04-2019 16.1 (15:50) 12.3 (00:00) 14.2 10 (08:40) 7.78 (09:20) 6.8 6.2 0.6 0 0
18-04-2019 17.8 (01:50) 12.3 (00:00) 15 10.28 (01:10) 6.67 (01:20) 12.2 0 1.2 4.2 6.8
17-04-2019 20.9 (22:20) 13.3 (00:00) 17.1 11.67 (22:20) 6.67 (21:00) 0.6 0 0 0 0.6
16-04-2019 15.1 (12:50) 9.6 (00:00) 12.4 15.28 (16:00) 11.94 (16:50) 0 0 0 0 0
15-04-2019 23.4 (14:10) 11.7 (00:00) 17.5 19.72 (14:40) 12.22 (14:40) 11.2 0 0 8.4 2.8
14-04-2019 18 (16:40) 11.7 (00:00) 14.8 10.83 (13:40) 8.33 (14:10) 0 0 0 0 0
13-04-2019 15 (15:00) 6.6 (00:00) 10.8 10.83 (16:30) 8.61 (16:50) 0 0 0 0 0
12-04-2019 14.4 (16:10) 8.7 (00:00) 11.5 9.72 (19:40) 8.06 (19:40) 0 0 0 0 0
11-04-2019 12.2 (10:30) 10.5 (00:00) 11.3 11.67 (09:40) 7.78 (09:40) 2 0.2 0.2 1.6 0
10-04-2019 13.7 (16:50) 8.9 (00:00) 11.3 8.61 (22:50) 5.83 (21:20) 0 0 0 0 0
09-04-2019 16.6 (11:30) 9 (00:00) 12.8 11.67 (15:40) 9.17 (15:40) 0 0 0 0 0
08-04-2019 15.5 (16:30) 11.5 (00:00) 13.5 13.61 (00:30) 8.61 (00:20) 0 0 0 0 0
07-04-2019 13.9 (13:40) 8.5 (00:00) 11.2 16.11 (02:50) 11.11 (07:10) 0.2 0.2 0 0 0
06-04-2019 18 (15:00) 6.5 (00:00) 12.3 12.22 (19:50) 8.33 (20:00) 5 2 0 0 3
05-04-2019 12.6 (16:20) 9.8 (00:00) 11.2 14.17 (02:30) 8.89 (03:20) 0.8 0.8 0 0 0
04-04-2019 13.8 (14:10) 4.2 (00:00) 9 18.89 (03:20) 11.67 (07:00) 13.2 11.4 1.6 0 0.2
03-04-2019 10 (04:20) 5 (00:00) 7.5 22.5 (18:00) 13.89 (18:20) 38 8.4 10.4 15.4 3.8
02-04-2019 14.7 (13:50) 9.3 (00:00) 12 12.22 (22:00) 7.5 (18:00) 2.6 0 0 0.4 2.2
01-04-2019 15.5 (17:00) 9.3 (00:00) 12.4 5.28 (12:00) 3.89 (12:00) 0 0 0 0 0
31-03-2019 16.9 (13:30) 9.2 (00:00) 13 10.83 (18:40) 8.61 (18:50) 0 0 0 0 0
30-03-2019 15.2 (14:20) 9 (00:00) 12.1 5.28 (06:30) 4.17 (06:30) 0 0 0 0 0
29-03-2019 15 (13:50) 7.7 (00:00) 11.3 7.5 (15:00) 5.83 (14:30) 0 0 0 0 0
28-03-2019 14.8 (12:20) 8 (00:00) 11.4 7.5 (18:20) 5.83 (16:20) 0 0 0 0 0
27-03-2019 14.1 (13:30) 7 (00:00) 10.6 8.61 (16:40) 6.67 (16:50) 0 0 0 0 0

Gráficas

Temp. máximas Temp. mínimas Temp. medias Precipitaciones Rachas de viento máximas Velocidades máximas media en intervalos de 10 minutos

Datos horarios

Fecha y hora oficial Temperatura (ºC) Velocidad del viento (km/h) Dirección del viento Racha (km/h) Dirección de racha Precipitación (mm) Presión (hPa) Tendencia (hPa) Humedad (%)
2019-04-25 23:00:00 11 44 Oeste 63 Oeste 0 1004.9 4.9 72
2019-04-25 22:00:00 11 12 Sudoeste 19 Sudoeste 0 1003.5 5 77
2019-04-25 21:00:00 11.4 12 Sudoeste 74 Noroeste 1.2 1002.2 4.2 75
2019-04-25 20:00:00 14.2 38 Oeste 60 Oeste 0 1000 2.1 57
2019-04-25 19:00:00 17.2 17 Sudoeste 44 Sudoeste 0 998.5 0.8 39
2019-04-25 18:00:00 17.5 12 Oeste 24 Oeste 0 998 0 49
2019-04-25 17:00:00 18.1 12 Noroeste 43 Sur 0 997.9 -0.1 47
2019-04-25 16:00:00 17.8 22 Sur 36 Sur 0 997.7 -0.2 36
2019-04-25 15:00:00 16.1 10 Noroeste 17 Norte 0 998 0.4 61
2019-04-25 14:00:00 16.2 9 Noroeste 44 Sur 0 998 1.3 52
2019-04-25 13:00:00 17.1 24 Sur 40 Sur 0 997.9 1.8 43
2019-04-25 12:00:00 15.9 22 Sur 45 Sur 0 997.6 2.4 47
2019-04-25 11:00:00 14 27 Sudoeste 57 Sur 0 996.7 2.1 52
2019-04-25 10:00:00 12.5 32 Sur 57 Sur 0 996.1 2.1 56
2019-04-25 09:00:00 12.1 30 Sur 51 Sur 0.2 995.2 1.3 59
2019-04-25 08:00:00 11.4 27 Sur 45 Sur 0 994.6 0.5 61
2019-04-25 07:00:00 11.7 26 Sur 40 Sur 0 994 0.3 66
2019-04-25 06:00:00 10.6 15 Sur 27 Sur 0 993.9 0.1 80
2019-04-25 05:00:00 10 9 Sudeste 22 Sur 0 994.1 0.6 87
2019-04-25 04:00:00 10.2 13 Sudeste 17 Sur 0 993.7 0.9 87
2019-04-25 03:00:00 10.1 10 Este 14 Este 0 993.8 1 85
2019-04-25 02:00:00 10.6 9 Este 14 Este 0 993.5 1.4 85
2019-04-25 01:00:00 10.7 3 Norte 17 Noroeste 0 992.8 1.2 84
2019-04-25 00:00:00 11.2 10 Noroeste 26 Noroeste 0.4 992.8 2.4 81
2019-04-24 23:00:00 12.3 15 Noroeste 27 Noroeste 0 992.1 3.9 77
2019-04-24 22:00:00 13.1 16 Noroeste 36 Noroeste 0 991.6 5.5 74
2019-04-24 21:00:00 13.4 11 Oeste 38 Noroeste 0 990.4 4.9 73
2019-04-24 20:00:00 16.8 17 Oeste 51 Sur 0 988.2 1.7 52
2019-04-24 19:00:00 17.7 24 Sur 49 Sur 0 986.1 -0.9 46
2019-04-24 18:00:00 18.4 28 Sur 46 Sur 0 985.5 -1.5 48
2019-04-24 17:00:00 17.2 20 Sur 43 Sur 0 986.5 -1.2 56
2019-04-24 16:00:00 16.8 23 Sur 48 Sur 0 987 -1.1 55
2019-04-24 15:00:00 17.3 32 Sur 54 Sur 0 987 -2.3 53
2019-04-24 14:00:00 16 31 Sur 63 Sur 0 987.7 -1.6 54
2019-04-24 13:00:00 13.6 36 Sur 64 Sur 0 988.1 -1.6 53
2019-04-24 12:00:00 12.4 35 Sur 66 Oeste 0 989.3 -0.5 58
2019-04-24 11:00:00 11.6 32 Sudoeste 57 Sur 0 989.3 -0.6 58
2019-04-24 10:00:00 11.4 31 Sur 59 Sur 0 989.7 -0.7 60
2019-04-24 09:00:00 11.4 26 Sudoeste 49 Sur 0 989.8 -1.1 61
2019-04-24 08:00:00 10.9 28 Sur 47 Sur 0 989.9 -1.7 63
2019-04-24 07:00:00 10.3 28 Sur 48 Sur 0.2 990.4 -1.4 66
2019-04-24 06:00:00 9.8 20 Sur 27 Sur 0 990.9 -1.3 75
2019-04-24 05:00:00 8.9 12 Sur 21 Sur 0 991.6 -0.8 80
2019-04-24 04:00:00 8.6 15 Sur 19 Sur 0 991.8 -0.7 83
2019-04-24 03:00:00 9.3 14 Sur 21 Sur 0 992.2 -0.3 82
2019-04-24 02:00:00 9.5 15 Sur 22 Sur 0 992.4 0 83
2019-04-24 01:00:00 9.4 15 Sur 21 Sur 0 992.5 0.7 85
2019-04-24 00:00:00 9 15 Sur 19 Sur 0 992.5 1.9 88
2019-04-23 23:00:00 9.8 11 Oeste 33 Noroeste 1.2 992.4 2.9 86
2019-04-23 22:00:00 9.3 23 Oeste 55 Oeste 2.8 991.8 3.3 87
2019-04-23 21:00:00 9.2 41 Oeste 65 Oeste 0.6 990.6 2.4 84
2019-04-23 20:00:00 12.6 17 Norte 24 Noroeste 0 989.5 1.5 78
2019-04-23 19:00:00 12.7 15 Norte 21 Norte 0 988.5 0.3 78
2019-04-23 18:00:00 13.1 14 Nordeste 19 Nordeste 0 988.2 -0.3 77
2019-04-23 17:00:00 12.6 13 Norte 22 Noroeste 0 988 -0.1 78
2019-04-23 16:00:00 12.9 16 Norte 27 Noroeste 0 988.2 0.4 79
2019-04-23 15:00:00 13 15 Noroeste 28 Noroeste 0 988.5 0.9 83
2019-04-23 14:00:00 12.5 21 Noroeste 39 Norte 0 988.1 1.1 87
2019-04-23 13:00:00 14.3 13 Noroeste 18 Oeste 0 987.8 1.1 90
2019-04-23 12:00:00 14 10 Oeste 14 Oeste 0 987.6 1 90
2019-04-23 11:00:00 14.2 8 Oeste 13 Oeste 0 987 0.8 90
2019-04-23 10:00:00 13.5 9 Noroeste 15 Noroeste 0 986.7 0.7 89
2019-04-23 09:00:00 13.6 10 Oeste 15 Oeste 0 986.6 0.6 89
2019-04-23 08:00:00 12.7 11 Oeste 16 Oeste 0 986.2 -0.2 87
2019-04-23 07:00:00 12.8 12 Oeste 16 Oeste 0 986 -0.2 87
2019-04-23 06:00:00 12.9 8 Oeste 19 Oeste 0 986 -0.5 87
2019-04-23 05:00:00 13.2 17 Oeste 28 Oeste 0 986.4 0.3 87
2019-04-23 04:00:00 13.6 17 Oeste 32 Oeste 0 986.2 0 85
2019-04-23 03:00:00 14 16 Oeste 31 Sur 0 986.5 0 79
2019-04-23 02:00:00 18.5 21 Sur 30 Sudoeste 0 986.1 -1 47
2019-04-23 01:00:00 19 18 Sudoeste 35 Sur 0 986.2 -1.2 47
2019-04-23 00:00:00 18.3 19 Sur 31 Sur 0 986.5 -1.2 51
2019-04-22 23:00:00 17.2 13 Sur 20 Sudeste 0 987.1 -1 56
2019-04-22 22:00:00 17.3 14 Sudeste 21 Sudeste 0 987.4 -1.2 59
2019-04-22 21:00:00 17.5 12 Sudeste 22 Sur 0 987.7 -1.3 62
2019-04-22 20:00:00 15.9 12 Sudeste 26 Este 0 988.1 -1.4 85
2019-04-22 19:00:00 15.1 17 Este 39 Este 0 988.6 -2 87
2019-04-22 18:00:00 15.1 28 Este 39 Este 0 989 -2.6 85
2019-04-22 17:00:00 15.7 26 Este 37 Este 0 989.5 -3.2 84
2019-04-22 16:00:00 15.8 24 Este 32 Este 0 990.6 -3.3 82
2019-04-22 15:00:00 16.4 15 Nordeste 26 Este 0 991.6 -3.4 82
2019-04-22 14:00:00 16 17 Este 26 Este 0 992.7 -3.1 82
2019-04-22 13:00:00 15.5 17 Este 23 Este 0 993.9 -2.8 84
2019-04-22 12:00:00 14.8 14 Este 17 Este 0 995 -2.2 85
2019-04-22 11:00:00 13.8 12 Este 16 Este 0 995.8 -1.7 88
2019-04-22 10:00:00 12.8 5 Este 11 Este 0 996.7 -1.2 89
2019-04-22 09:00:00 12.3 6 Sudeste 12 Sudeste 0 997.2 -1.6 91
2019-04-22 08:00:00 11.1 10 Sudeste 15 Sudeste 0 997.5 -2.4 92
2019-04-22 07:00:00 11.1 9 Sudeste 12 Sudeste 0 997.9 -2.9 91
2019-04-22 06:00:00 11.2 6 Sudeste 11 Sur 0 998.8 -3.3 91
2019-04-22 05:00:00 11.1 8 Sur 11 Sudeste 0 999.9 -3.2 90
2019-04-22 04:00:00 12.1 5 Sudoeste 8 Sudoeste 0 1000.8 -3 89
2019-04-22 03:00:00 12.2 7 Sur 10 Sur 0 1002.1 -2.6 89
2019-04-22 02:00:00 12.3 6 Sudoeste 8 Sudoeste 0 1003.1 -2.2 89
2019-04-22 01:00:00 12.8 4 Oeste 8 Sudeste 0 1003.8 -1.7 89
2019-04-22 00:00:00 12.7 5 Sudeste 6 Sudeste 0 1004.7 -0.9 89
2019-04-21 23:00:00 12.7 4 Sudeste 9 Sudeste 0 1005.3 -0.5 89
2019-04-21 22:00:00 13 5 Sudeste 17 Este 0 1005.5 -0.5 88
2019-04-21 21:00:00 13.4 14 Nordeste 21 Nordeste 0 1005.6 -0.9 86
2019-04-21 20:00:00 13.9 14 Este 19 Nordeste 0 1005.8 -1.1 84
2019-04-21 19:00:00 15 13 Nordeste 18 Nordeste 0 1006 -1.6 86
2019-04-21 18:00:00 14.5 8 Nordeste 15 Noroeste 0 1006.5 -1.6 91
2019-04-21 17:00:00 14.8 10 Noroeste 20 Noroeste 0 1006.9 -1.9 91
2019-04-21 16:00:00 14.3 11 Noroeste 21 Noroeste 0 1007.6 -1.9 90
2019-04-21 15:00:00 14.8 14 Noroeste 26 Oeste 0 1008.1 -1.7 89
2019-04-21 14:00:00 14.7 18 Oeste 25 Oeste 0 1008.8 -1.1 87
2019-04-21 13:00:00 15 16 Oeste 27 Oeste 0 1009.5 -0.4 87
2019-04-21 12:00:00 15.1 18 Oeste 26 Oeste 0 1009.8 -0.5 85
2019-04-21 11:00:00 14.7 16 Oeste 22 Oeste 0 1009.9 -0.6 85
2019-04-21 10:00:00 14 13 Sudoeste 21 Sudoeste 0 1009.9 0.1 81
2019-04-21 09:00:00 13.5 11 Sudoeste 18 Sudoeste 0 1010.3 0.5 83
2019-04-21 08:00:00 12 11 Oeste 17 Sudoeste 0 1010.5 -0.2 83
2019-04-21 07:00:00 11.6 12 Sudoeste 24 Sudoeste 0 1009.8 -1.7 81
2019-04-21 06:00:00 11.5 14 Sudoeste 23 Oeste 0 1009.8 -2.3 78
2019-04-21 05:00:00 12.6 13 Sudoeste 18 Oeste 0 1010.7 -2 79
2019-04-21 04:00:00 12.2 7 Sudoeste 10 Sudoeste 0 1011.5 -1.8 84
2019-04-21 03:00:00 13 6 Sudoeste 17 Sudoeste 0 1012.1 -1.8 83
2019-04-21 02:00:00 12.9 12 Sudoeste 19 Sur 0 1012.7 -1.6 88
2019-04-21 01:00:00 13.1 9 Sudoeste 14 Sudoeste 0 1013.3 -0.9 91
2019-04-21 00:00:00 12.9 9 Sudoeste 13 Sudoeste 0 1013.9 0 94
2019-04-20 23:00:00 12.2 9 Sudoeste 13 Sudoeste 0 1014.3 0.4 95
2019-04-20 22:00:00 11.8 12 Sudoeste 14 Oeste 0 1014.2 0.4 95
2019-04-20 21:00:00 12.1 10 Oeste 14 Oeste 0 1013.9 -0.1 94
2019-04-20 20:00:00 13 9 Oeste 11 Oeste 0 1013.9 -0.5 92
2019-04-20 19:00:00 14.4 7 Oeste 12 Oeste 0 1013.8 -0.9 91
2019-04-20 18:00:00 15.4 9 Oeste 13 Oeste 0 1014 -1.3 91
2019-04-20 17:00:00 15 10 Oeste 17 Oeste 0 1014.4 -1.4 92
2019-04-20 16:00:00 15 12 Oeste 17 Noroeste 0 1014.7 -1.6 91
2019-04-20 15:00:00 14.5 11 Oeste 17 Noroeste 0 1015.3 -1.6 93
2019-04-20 14:00:00 14.1 13 Oeste 19 Oeste 0 1015.8 -1.4 94
2019-04-20 13:00:00 13.5 14 Oeste 20 Oeste 0 1016.3 -0.8 93
2019-04-20 12:00:00 12.8 16 Oeste 21 Oeste 0 1016.9 -0.3 92
2019-04-20 11:00:00 13.9 13 Oeste 22 Oeste 0 1017.2 0.6 90
2019-04-20 10:00:00 13.6 13 Oeste 19 Oeste 0 1017.1 0.8 90
2019-04-20 09:00:00 12.4 12 Oeste 17 Oeste 0 1017.2 1 90
2019-04-20 08:00:00 11.6 6 Oeste 12 Sudoeste 0 1016.6 -0.3 91
2019-04-20 07:00:00 11.8 4 Norte 16 Sudoeste 0 1016.3 -0.6 91
2019-04-20 06:00:00 12.1 12 Sudoeste 16 Sudoeste 0 1016.2 -1.1 93
2019-04-20 05:00:00 12.3 10 Oeste 14 Sudoeste 0 1016.9 -0.3 94
2019-04-20 04:00:00 12.3 9 Sudoeste 12 Sudoeste 0 1016.9 -0.5 94
2019-04-20 03:00:00 12.6 4 Noroeste 11 Sudeste 0 1017.3 -0.1 93
2019-04-20 02:00:00 12.2 8 Sur 11 Sur 0 1017.2 0 93
2019-04-20 01:00:00 12.4 9 Sudeste 15 Este 0 1017.4 0.8 93
2019-04-20 00:00:00 12.8 9 Este 14 Este 0 1017.4 1.7 92
2019-04-19 23:00:00 13.1 9 Nordeste 13 Nordeste 0 1017.2 2.5 91
2019-04-19 22:00:00 13.5 9 Nordeste 13 Nordeste 0 1016.6 1.9 88
2019-04-19 21:00:00 14.2 7 Este 14 Sudeste 0 1015.7 1.2 84
2019-04-19 20:00:00 15.3 10 Sudeste 21 Este 0 1014.7 0.3 84
2019-04-19 19:00:00 15.3 14 Este 22 Este 0 1014.7 0.6 88
2019-04-19 18:00:00 14.6 16 Este 27 Este 0 1014.5 0.7 91
2019-04-19 17:00:00 15.4 17 Este 26 Este 0 1014.4 1.2 91
2019-04-19 16:00:00 15.8 11 Este 22 Este 0 1014.1 0.9 89
2019-04-19 15:00:00 15.3 19 Este 30 Este 0 1013.8 0.8 91
2019-04-19 14:00:00 15.5 20 Este 34 Este 0 1013.2 0.6 92
2019-04-19 13:00:00 14.9 21 Este 31 Este 0 1013.2 1 95
2019-04-19 12:00:00 14.2 24 Este 31 Este 0 1013 1.6 98
2019-04-19 11:00:00 13.3 22 Este 33 Este 0 1012.6 2 97
2019-04-19 10:00:00 13 22 Este 35 Nordeste 0 1012.2 2.2 97
2019-04-19 09:00:00 12.8 24 Nordeste 36 Este 0 1011.4 1.5 97
2019-04-19 08:00:00 12.7 22 Este 35 Este 0 1010.6 1 97
2019-04-19 07:00:00 12.6 17 Este 30 Este 0.6 1010 -0.1 97
2019-04-19 06:00:00 12.6 14 Este 21 Este 0.4 1009.9 -0.7 96
2019-04-19 05:00:00 12.6 5 Este 13 Norte 1 1009.6 -0.9 96
2019-04-19 04:00:00 12.6 6 Norte 9 Norte 4.2 1010.1 -0.5 96
2019-04-19 03:00:00 12.6 4 Oeste 10 Norte 0.6 1010.6 0.5 96
2019-04-19 02:00:00 12.6 6 Norte 11 Noroeste 0 1010.5 0.1 96
2019-04-19 01:00:00 12.5 7 Norte 12 Oeste 0 1010.6 0.4 95
2019-04-19 00:00:00 12.3 10 Oeste 14 Oeste 0 1010.1 0.3 95
2019-04-18 23:00:00 12.4 6 Sudoeste 10 Sudoeste 2.2 1010.4 1.1 94
2019-04-18 22:00:00 12.4 0 Calma 10 Norte 2.2 1010.2 1.3 94
2019-04-18 21:00:00 12.6 0 Calma 6 Norte 1.6 1009.8 1.6 93
2019-04-18 20:00:00 12.7 4 Este 13 Este 0.6 1009.3 1.4 92
2019-04-18 19:00:00 12.9 11 Este 18 Este 0.2 1008.9 0.8 92
2019-04-18 18:00:00 13.1 13 Este 17 Este 0 1008.2 0 92
2019-04-18 17:00:00 13.8 8 Nordeste 11 Este 0 1007.9 -0.8 92
2019-04-18 16:00:00 13.6 7 Este 13 Este 0 1008.1 -0.2 93
2019-04-18 15:00:00 13.1 6 Norte 17 Nordeste 1.2 1008.2 -0.2 93
2019-04-18 14:00:00 12.8 13 Este 18 Este 1.2 1008.7 0.9 91
2019-04-18 13:00:00 13.2 10 Este 14 Este 1.8 1008.3 1.4 89
2019-04-18 12:00:00 13.4 4 Sudeste 7 Oeste 0.6 1008.4 1.7 86
2019-04-18 11:00:00 13.2 5 Oeste 13 Oeste 0.6 1007.8 1.9 85
2019-04-18 10:00:00 13 10 Oeste 15 Oeste 0 1006.9 1.8 86
2019-04-18 09:00:00 12.8 9 Oeste 19 Sudoeste 0 1006.7 2.1 87
2019-04-18 08:00:00 12.8 10 Oeste 21 Oeste 0 1005.9 2 86
2019-04-18 07:00:00 13.1 13 Oeste 25 Oeste 0 1005.1 2.1 83
2019-04-18 06:00:00 13.5 7 Oeste 18 Oeste 0 1004.6 2.1 79
2019-04-18 05:00:00 13.4 14 Oeste 37 Oeste 0 1003.9 2 80
2019-04-18 04:00:00 13.5 20 Oeste 34 Oeste 0 1003 0.9 79
2019-04-18 03:00:00 14.9 21 Oeste 33 Oeste 0 1002.5 0 71
2019-04-18 02:00:00 17.5 14 Sudeste 37 Sudeste 0 1001.9 -0.3 69
2019-04-18 01:00:00 16.6 18 Este 30 Este 0 1002.1 0.4 75
2019-04-18 00:00:00 17.6 17 Sur 37 Sudoeste 0.6 1002.5 2.7 70
2019-04-17 23:00:00 20.4 17 Sudoeste 42 Sur 0 1002.2 2.6 55
2019-04-17 22:00:00 19.9 16 Sur 30 Sudeste 0 1001.7 2.4 61
2019-04-17 21:00:00 18.5 24 Sudeste 34 Sudeste 0 999.8 0.8 65
2019-04-17 20:00:00 17 13 Este 24 Este 0 999.6 0.1 71
2019-04-17 19:00:00 18.4 15 Sudeste 32 Este 0 999.3 -1 65
2019-04-17 18:00:00 18.8 15 Este 30 Este 0 999 -1.8 64
2019-04-17 17:00:00 19.8 21 Este 30 Este 0 999.5 -1.6 61
2019-04-17 16:00:00 16.8 19 Este 25 Este 0 1000.3 -0.9 67
2019-04-17 15:00:00 18 12 Sudeste 22 Sudeste 0 1000.8 -0.6 62
2019-04-17 14:00:00 17.1 7 Sudeste 17 Este 0 1001.1 -0.5 67
2019-04-17 13:00:00 17.4 12 Sur 23 Sur 0 1001.2 -0.1 62
2019-04-17 12:00:00 17.8 11 Sudeste 39 Sur 0 1001.4 0 57
2019-04-17 11:00:00 16.1 17 Sur 26 Sudeste 0 1001.6 0 64
2019-04-17 10:00:00 15.6 22 Sudeste 27 Sudeste 0 1001.3 -0.1 65
2019-04-17 09:00:00 15.8 18 Sudeste 23 Sudeste 0 1001.4 -0.2 65
2019-04-17 08:00:00 16.2 15 Sudeste 26 Sudeste 0 1001.6 -0.5 61
2019-04-17 07:00:00 15.6 14 Sudeste 18 Sudeste 0 1001.4 -1.1 64
2019-04-17 06:00:00 15.9 15 Este 19 Sudeste 0 1001.6 -2 65
2019-04-17 05:00:00 14.5 10 Sudeste 13 Sudeste 0 1002.1 -2.6 74
2019-04-17 04:00:00 14 8 Sudeste 27 Sudeste 0 1002.5 -2.7 78
2019-04-17 03:00:00 14.3 20 Sudeste 26 Sudeste 0 1003.6 -2.1 81
2019-04-17 02:00:00 14 17 Sudeste 25 Sudeste 0 1004.7 -1.7 84
2019-04-17 01:00:00 13.7 18 Sudeste 27 Este 0 1005.2 -1.6 85
2019-04-17 00:00:00 13.3 24 Este 32 Este 0 1005.7 -1.1 87
2019-04-16 23:00:00 13.5 27 Este 39 Este 0 1006.4 -0.6 86
2019-04-16 22:00:00 13.4 29 Este 39 Este 0 1006.8 -0.4 86
2019-04-16 21:00:00 13.4 24 Este 41 Este 0 1006.8 -0.9 84
2019-04-16 20:00:00 13.9 28 Este 45 Este 0 1007 -1.2 82
2019-04-16 19:00:00 14 31 Este 45 Este 0 1007.2 -2 81
2019-04-16 18:00:00 14.3 31 Este 51 Este 0 1007.7 -2.4 82
2019-04-16 17:00:00 14.4 43 Este 54 Este 0 1008.2 -2.5 80
2019-04-16 16:00:00 14.3 38 Este 55 Este 0 1009.2 -2.3 81
2019-04-16 15:00:00 14.4 38 Este 51 Este 0 1010.1 -2.1 80
2019-04-16 14:00:00 14.7 28 Este 41 Este 0 1010.7 -1.8 80
2019-04-16 13:00:00 15 24 Este 32 Este 0 1011.5 -1.3 79
2019-04-16 12:00:00 14.3 25 Este 32 Este 0 1012.2 -0.7 80
2019-04-16 11:00:00 14.3 11 Este 21 Este 0 1012.5 0 81
2019-04-16 10:00:00 13.6 11 Sudeste 15 Sudeste 0 1012.8 0.6 82
2019-04-16 09:00:00 12.4 12 Sudeste 15 Sudeste 0 1012.9 1.1 88
2019-04-16 08:00:00 9.9 12 Sur 14 Sur 0 1012.5 0.5 90
2019-04-16 07:00:00 10.4 8 Sudoeste 12 Sudeste 0 1012.2 0.3 89
2019-04-16 06:00:00 11.2 5 Sudoeste 12 Sudoeste 0 1011.8 -0.2 88
2019-04-16 05:00:00 11.3 9 Sudoeste 14 Sudoeste 0 1012 -0.1 90
2019-04-16 04:00:00 11.1 8 Sudoeste 19 Oeste 0 1011.9 0 91
2019-04-16 03:00:00 11.5 12 Sudoeste 18 Sudoeste 0 1012 0.6 91
2019-04-16 02:00:00 11.5 13 Sudoeste 23 Oeste 0 1012.1 1.6 92
2019-04-16 01:00:00 11.7 14 Oeste 27 Oeste 0 1011.9 2.1 92
2019-04-16 00:00:00 11.7 15 Sudoeste 27 Sudoeste 0.2 1011.4 3 93
2019-04-15 23:00:00 11.8 16 Sudoeste 27 Oeste 0.2 1010.5 3.4 92
2019-04-15 22:00:00 12 10 Sudoeste 25 Oeste 0.8 1009.8 3.4 92
2019-04-15 21:00:00 12.1 12 Oeste 27 Noroeste 1.4 1008.4 2.8 91
2019-04-15 20:00:00 12.9 17 Noroeste 27 Noroeste 0.2 1007.1 2.5 89
2019-04-15 19:00:00 13.2 10 Oeste 20 Oeste 0 1006.4 3.5 90
2019-04-15 18:00:00 13.1 10 Noroeste 35 Noroeste 0.4 1005.6 4.1 90
2019-04-15 17:00:00 13.4 18 Oeste 34 Oeste 3 1004.6 5.8 90
2019-04-15 16:00:00 14 15 Noroeste 39 Noroeste 2.6 1002.9 2.9 88
2019-04-15 15:00:00 14.3 27 Oeste 71 Oeste 2.4 1001.5 1.3 85
2019-04-15 14:00:00 22.6 15 Sur 21 Sur 0 998.8 -1.4 67
2019-04-15 13:00:00 21.8 12 Sur 35 Sur 0 1000 -0.6 55
2019-04-15 12:00:00 21.3 21 Sur 39 Sur 0 1000.2 -1.2 52
2019-04-15 11:00:00 21.2 31 Sur 47 Sur 0 1000.2 -1.5 53
2019-04-15 10:00:00 20.9 24 Sur 38 Sur 0 1000.6 -1.4 57
2019-04-15 09:00:00 19.2 17 Sur 26 Sur 0 1001.4 -1.1 65
2019-04-15 08:00:00 18.7 19 Sur 30 Sur 0 1001.7 -1.6 70
2019-04-15 07:00:00 16.1 16 Sudeste 22 Sudeste 0 1002 -2 78
2019-04-15 06:00:00 16.4 19 Sudeste 28 Sudeste 0 1002.5 -2.6 82
2019-04-15 05:00:00 14.8 19 Sudeste 28 Sudeste 0 1003.3 -3 87
2019-04-15 04:00:00 14.1 20 Este 28 Este 0 1004 -2.9 91
2019-04-15 03:00:00 13.3 18 Este 27 Este 0 1005.1 -2.5 92
2019-04-15 02:00:00 13.2 23 Este 38 Este 0 1006.3 -2 91
2019-04-15 01:00:00 13.1 23 Este 38 Este 0 1006.9 -1.6 90
2019-04-15 00:00:00 13.2 27 Este 38 Este 0 1007.6 -0.8 89
2019-04-14 23:00:00 13.9 26 Este 39 Este 0 1008.3 0.1 87
2019-04-14 22:00:00 13.8 23 Este 35 Este 0 1008.5 0.1 84
2019-04-14 21:00:00 13.6 17 Este 26 Este 0 1008.4 -0.4 84
2019-04-14 20:00:00 14.8 15 Este 30 Este 0 1008.2 -1.1 82
2019-04-14 19:00:00 14.4 19 Este 27 Este 0 1008.4 -1.9 83
2019-04-14 18:00:00 14.9 19 Este 29 Este 0 1008.8 -1.6 81
2019-04-14 17:00:00 15.7 17 Este 24 Este 0 1009.3 -1.1 76
2019-04-14 16:00:00 15.6 16 Este 26 Este 0 1010.3 -0.3 77
2019-04-14 15:00:00 14.5 18 Este 36 Este 0 1010.4 0.4 80
2019-04-14 14:00:00 13.9 29 Este 39 Este 0 1010.4 0.6 82
2019-04-14 13:00:00 15 18 Este 28 Nordeste 0 1010.6 0.9 80
2019-04-14 12:00:00 15.7 10 Este 13 Este 0 1010 0.5 76
2019-04-14 11:00:00 16.5 7 Sur 9 Sur 0 1009.8 0.1 77
2019-04-14 10:00:00 14.1 4 Este 6 Este 0 1009.7 0.3 87
2019-04-14 09:00:00 12.5 3 Sur 13 Sur 0 1009.5 -0.1 89
2019-04-14 08:00:00 11.7 5 Sudeste 8 Sudeste 0 1009.7 -0.5 88
2019-04-14 07:00:00 12.1 3 Oeste 13 Sudoeste 0 1009.4 -0.7 88
2019-04-14 06:00:00 12.1 2 Sudoeste 12 Sudeste 0 1009.6 -0.4 89
2019-04-14 05:00:00 12.3 7 Este 17 Este 0 1010.2 -0.2 89
2019-04-14 04:00:00 12.3 11 Este 17 Este 0 1010.1 -0.4 88
2019-04-14 03:00:00 12.2 13 Este 18 Este 0 1010 -0.8 87
2019-04-14 02:00:00 12.4 13 Este 17 Este 0 1010.4 -0.7 86
2019-04-14 01:00:00 12.4 5 Este 10 Sudeste 0 1010.5 -0.5 85
2019-04-14 00:00:00 12.4 7 Sudeste 11 Sudeste 0 1010.8 0.3 84
2019-04-13 23:00:00 12.3 7 Este 14 Este 0 1011.1 0.6 84
2019-04-13 22:00:00 12.5 9 Este 17 Este 0 1011 0.8 83
2019-04-13 21:00:00 12.6 12 Este 25 Este 0 1010.5 0.2 81
2019-04-13 20:00:00 13 19 Este 31 Este 0 1010.5 0.2 78
2019-04-13 19:00:00 13.8 19 Este 32 Este 0 1010.2 -0.4 76
2019-04-13 18:00:00 14.2 21 Este 32 Este 0 1010.3 -0.8 75
2019-04-13 17:00:00 14.2 29 Este 39 Este 0 1010.3 -1 75
2019-04-13 16:00:00 14.4 26 Este 32 Este 0 1010.6 -1.5 74
2019-04-13 15:00:00 14.8 21 Este 28 Este 0 1011.1 -1.3 72
2019-04-13 14:00:00 14.5 23 Este 30 Este 0 1011.3 -1 70
2019-04-13 13:00:00 13.8 19 Este 27 Este 0 1012.1 -0.2 65
2019-04-13 12:00:00 13.9 10 Nordeste 15 Nordeste 0 1012.4 0.1 67
2019-04-13 11:00:00 12.5 7 Nordeste 9 Este 0 1012.3 0.1 71
2019-04-13 10:00:00 12.5 3 Sudeste 7 Sudeste 0 1012.3 0.2 70
2019-04-13 09:00:00 9.1 4 Sur 16 Sur 0 1012.3 0.1 82
2019-04-13 08:00:00 7 13 Sur 17 Sudeste 0 1012.2 0 88
2019-04-13 07:00:00 7.1 11 Sur 14 Sur 0 1012.1 -0.5 86
2019-04-13 06:00:00 7.2 9 Sur 12 Sudeste 0 1012.2 -0.8 85
2019-04-13 05:00:00 7.5 6 Sur 12 Sudeste 0 1012.2 -1.2 84
2019-04-13 04:00:00 7.6 9 Sudeste 14 Sudeste 0 1012.6 -0.9 84
2019-04-13 03:00:00 7.9 11 Sudeste 19 Sudeste 0 1013 -0.5 82
2019-04-13 02:00:00 8.6 14 Sudeste 17 Sudeste 0 1013.4 -0.3 81
2019-04-13 01:00:00 9.6 14 Sudeste 21 Sudeste 0 1013.5 0.1 79
2019-04-13 00:00:00 9.7 16 Sudeste 21 Sudeste 0 1013.5 0.3 78
2019-04-12 23:00:00 10.3 16 Sudeste 25 Sudeste 0 1013.7 0.5 75
2019-04-12 22:00:00 10.9 18 Este 35 Este 0 1013.4 0 73
2019-04-12 21:00:00 11.4 22 Este 33 Este 0 1013.2 -0.4 73
2019-04-12 20:00:00 12.3 27 Este 35 Este 0 1013.2 -0.6 72
2019-04-12 19:00:00 12.8 28 Este 35 Este 0 1013.4 -1.2 72
2019-04-12 18:00:00 13.3 24 Este 31 Este 0 1013.6 -1.8 71
2019-04-12 17:00:00 13.8 21 Este 27 Nordeste 0 1013.8 -1.8 71
2019-04-12 16:00:00 14.3 18 Este 24 Nordeste 0 1014.6 -1 72
2019-04-12 15:00:00 14.1 17 Nordeste 21 Nordeste 0 1015.4 -0.3 74
2019-04-12 14:00:00 13.8 16 Nordeste 19 Nordeste 0 1015.6 0.2 76
2019-04-12 13:00:00 13.7 10 Nordeste 13 Nordeste 0 1015.6 0.2 76
2019-04-12 12:00:00 13.3 6 Nordeste 9 Nordeste 0 1015.7 0.3 74
2019-04-12 11:00:00 13 5 Nordeste 8 Nordeste 0 1015.4 0.1 78
2019-04-12 10:00:00 11.6 5 Sudoeste 16 Sur 0 1015.4 0.4 83
2019-04-12 09:00:00 9.1 12 Sur 18 Sudoeste 0 1015.4 0.2 86
2019-04-12 08:00:00 9.2 10 Sudoeste 15 Sur 0 1015.3 -0.1 87
2019-04-12 07:00:00 9 11 Sudoeste 16 Sur 0 1015 -0.4 88
2019-04-12 06:00:00 8.7 13 Sudoeste 17 Sudoeste 0 1015.2 -0.7 88
2019-04-12 05:00:00 9.3 9 Sudoeste 15 Sudoeste 0 1015.4 -1 87
2019-04-12 04:00:00 9.3 11 Sudoeste 15 Sudoeste 0 1015.4 -1 86
2019-04-12 03:00:00 9.7 8 Sudoeste 12 Sudoeste 0 1015.9 -0.6 86
2019-04-12 02:00:00 9.8 9 Sudoeste 12 Sudoeste 0 1016.4 -0.2 84
2019-04-12 01:00:00 10.5 6 Oeste 16 Noroeste 0 1016.4 0.1 80
2019-04-12 00:00:00 11.2 10 Noroeste 19 Norte 0 1016.5 0.6 79
2019-04-11 23:00:00 11.2 9 Noroeste 19 Noroeste 0 1016.6 1 80
2019-04-11 22:00:00 11.4 9 Noroeste 21 Noroeste 0 1016.3 0.9 80
2019-04-11 21:00:00 11.6 13 Noroeste 21 Noroeste 0 1015.9 0.6 82
2019-04-11 20:00:00 11.5 14 Noroeste 22 Noroeste 0 1015.6 0.5 85
2019-04-11 19:00:00 11.5 9 Noroeste 23 Noroeste 0 1015.4 0.1 88
2019-04-11 18:00:00 11.1 9 Oeste 23 Oeste 0 1015.3 -0.1 89
2019-04-11 17:00:00 11.2 16 Noroeste 34 Oeste 0.2 1015.1 -0.1 88
2019-04-11 16:00:00 10.8 19 Noroeste 30 Noroeste 0.4 1015.3 0.1 88
2019-04-11 15:00:00 11.7 19 Noroeste 28 Noroeste 0 1015.4 0.3 85
2019-04-11 14:00:00 11.6 19 Noroeste 33 Noroeste 1 1015.2 0.6 86
2019-04-11 13:00:00 10.9 17 Oeste 38 Oeste 0 1015.2 0.9 84
2019-04-11 12:00:00 11.8 20 Oeste 36 Oeste 0 1015.1 1 82
2019-04-11 11:00:00 11.3 27 Oeste 40 Noroeste 0.2 1014.6 0.9 82
2019-04-11 10:00:00 11.4 27 Noroeste 42 Noroeste 0 1014.3 0.8 82
2019-04-11 09:00:00 11.1 18 Noroeste 40 Noroeste 0 1014.1 0.4 83
2019-04-11 08:00:00 10.9 21 Noroeste 37 Noroeste 0 1013.7 0.1 83
2019-04-11 07:00:00 11.3 24 Noroeste 35 Noroeste 0 1013.5 -0.1 82
2019-04-11 06:00:00 11.1 16 Noroeste 30 Noroeste 0 1013.7 -0.1 83
2019-04-11 05:00:00 11.2 20 Noroeste 28 Noroeste 0 1013.6 -0.3 82
2019-04-11 04:00:00 11.3 14 Noroeste 23 Noroeste 0 1013.6 -0.1 81
2019-04-11 03:00:00 11.4 12 Noroeste 27 Noroeste 0 1013.8 0.1 81
2019-04-11 02:00:00 11.7 21 Norte 32 Norte 0 1013.9 0.2 83
2019-04-11 01:00:00 11.1 12 Noroeste 31 Noroeste 0.2 1013.7 0.4 84
2019-04-11 00:00:00 11.7 18 Oeste 25 Noroeste 0 1013.7 1.4 80
2019-04-10 23:00:00 11.8 20 Noroeste 31 Noroeste 0 1013.7 1.6 80
2019-04-10 22:00:00 11.5 19 Noroeste 30 Oeste 0 1013.3 1.7 84
2019-04-10 21:00:00 11.9 19 Oeste 27 Oeste 0 1012.3 1.1 79
2019-04-10 20:00:00 12.6 17 Noroeste 25 Noroeste 0 1012.1 1.4 75
2019-04-10 19:00:00 13 15 Noroeste 24 Noroeste 0 1011.6 1.1 73
2019-04-10 18:00:00 13 17 Noroeste 27 Norte 0 1011.2 1.1 71
2019-04-10 17:00:00 13.3 17 Noroeste 24 Norte 0 1010.7 1 72
2019-04-10 16:00:00 13.1 17 Norte 25 Norte 0 1010.5 1 75
2019-04-10 15:00:00 13.3 15 Norte 22 Norte 0 1010.1 1.1 76
2019-04-10 14:00:00 13.3 13 Norte 18 Norte 0 1009.7 1.1 75
2019-04-10 13:00:00 13 10 Norte 14 Norte 0 1009.5 1.4 74
2019-04-10 12:00:00 13.3 6 Norte 12 Nordeste 0 1009 1.3 73
2019-04-10 11:00:00 13.3 6 Nordeste 8 Norte 0 1008.6 2 74
2019-04-10 10:00:00 12.6 5 Norte 8 Norte 0 1008.1 2 74
2019-04-10 09:00:00 10.7 3 Sudoeste 7 Sur 0 1007.7 1.9 77
2019-04-10 08:00:00 9.1 3 Sudoeste 16 Sur 0 1006.6 0.6 75
2019-04-10 07:00:00 9.7 14 Sur 18 Sur 0 1006.1 0 75
2019-04-10 06:00:00 9.9 13 Sudoeste 17 Sur 0 1005.8 -0.4 76
2019-04-10 05:00:00 10 14 Sur 18 Sur 0 1006 -0.2 75
2019-04-10 04:00:00 10.4 12 Sur 19 Sudoeste 0 1006.1 0.5 77
2019-04-10 03:00:00 10.4 12 Sudoeste 24 Sudoeste 0 1006.2 0.8 77
2019-04-10 02:00:00 10.6 14 Sudoeste 24 Oeste 0 1006.2 1 76
2019-04-10 01:00:00 10.7 14 Sur 20 Sur 0 1005.6 0.6 75
2019-04-10 00:00:00 10.5 10 Sudoeste 16 Sudoeste 0 1005.4 0.8 79
2019-04-09 23:00:00 10 14 Sur 17 Sur 0 1005.2 0.8 80
2019-04-09 22:00:00 10.4 12 Sur 15 Sur 0 1005 0.7 78
2019-04-09 21:00:00 11.2 11 Sur 15 Sur 0 1004.6 -0.1 78
2019-04-09 20:00:00 12.3 6 Sur 14 Sudeste 0 1004.4 0.1 77
2019-04-09 19:00:00 12.8 6 Sudeste 9 Norte 0 1004.3 0.6 72
2019-04-09 18:00:00 12.3 4 Noroeste 19 Noroeste 0 1004.7 1.3 72
2019-04-09 17:00:00 12.4 18 Noroeste 36 Noroeste 0 1004.3 1.6 73
2019-04-09 16:00:00 12.4 31 Noroeste 42 Noroeste 0 1003.7 0.9 77
2019-04-09 15:00:00 13.2 25 Noroeste 35 Noroeste 0 1003.4 0.6 80
2019-04-09 14:00:00 13.4 24 Noroeste 32 Noroeste 0 1002.7 0.2 81
2019-04-09 13:00:00 14.5 20 Noroeste 29 Noroeste 0 1002.8 0.4 80
2019-04-09 12:00:00 14.3 16 Noroeste 24 Oeste 0 1002.8 0.7 73
2019-04-09 11:00:00 15.7 13 Sudoeste 32 Sur 0 1002.5 0.8 54
2019-04-09 10:00:00 13.8 18 Sudoeste 34 Sudoeste 0 1002.4 0.6 58
2019-04-09 09:00:00 13.1 21 Sur 32 Sur 0 1002.1 0 59
2019-04-09 08:00:00 11.8 20 Sur 28 Sur 0 1001.7 -0.7 61
2019-04-09 07:00:00 11.1 18 Sur 25 Sur 0 1001.8 -1 67
2019-04-09 06:00:00 9.8 6 Sur 15 Sur 0 1002.1 -1.2 78
2019-04-09 05:00:00 9.4 12 Sur 17 Sur 0 1002.4 -1.4 81
2019-04-09 04:00:00 9.1 13 Sudeste 15 Sudeste 0 1002.8 -1.2 81
2019-04-09 03:00:00 9.8 9 Sur 10 Sur 0 1003.3 -1 81
2019-04-09 02:00:00 9.9 9 Sur 17 Sudeste 0 1003.8 -0.5 79
2019-04-09 01:00:00 10.9 9 Este 17 Este 0 1004 -0.6 76
2019-04-09 00:00:00 11.5 13 Este 21 Este 0 1004.3 0 75
2019-04-08 23:00:00 11.7 15 Este 21 Este 0 1004.3 -0.3 72
2019-04-08 22:00:00 11.9 10 Este 25 Este 0 1004.6 -0.3 71
2019-04-08 21:00:00 12.2 16 Este 25 Este 0 1004.3 -0.8 70
2019-04-08 20:00:00 13.4 13 Sudeste 23 Este 0 1004.6 -0.8 70
2019-04-08 19:00:00 13.3 18 Este 24 Este 0 1004.9 -0.6 73
2019-04-08 18:00:00 14 19 Este 24 Este 0 1005.1 -0.7 70
2019-04-08 17:00:00 15.2 12 Nordeste 16 Nordeste 0 1005.4 -0.4 69
2019-04-08 16:00:00 14.5 9 Nordeste 12 Noroeste 0 1005.5 -0.2 71
2019-04-08 15:00:00 14.2 6 Noroeste 15 Noroeste 0 1005.8 0.3 71
2019-04-08 14:00:00 14.2 6 Noroeste 17 Oeste 0 1005.8 0.6 70
2019-04-08 13:00:00 14.5 9 Noroeste 20 Oeste 0 1005.7 1 73
2019-04-08 12:00:00 13.7 13 Oeste 24 Oeste 0 1005.5 1.2 78
2019-04-08 11:00:00 12.9 15 Oeste 28 Oeste 0 1005.2 1.8 83
2019-04-08 10:00:00 11.9 16 Oeste 24 Oeste 0 1004.7 2.8 83
2019-04-08 09:00:00 12 15 Oeste 38 Oeste 0 1004.3 3.5 83
2019-04-08 08:00:00 12.1 23 Oeste 37 Oeste 0 1003.4 2.8 80
2019-04-08 07:00:00 13.3 13 Sudoeste 25 Sudoeste 0 1001.9 1.6 62
2019-04-08 06:00:00 13.6 15 Sudoeste 28 Sur 0 1000.8 0.7 60
2019-04-08 05:00:00 13.3 20 Sur 33 Sur 0 1000.6 0.1 60
2019-04-08 04:00:00 13.2 25 Sur 42 Sur 0 1000.3 -0.4 59
2019-04-08 03:00:00 13.1 24 Sur 40 Sur 0 1000.1 -0.8 57
2019-04-08 02:00:00 12.9 28 Sur 43 Sur 0 1000.5 -1.1 57
2019-04-08 01:00:00 12.7 28 Sur 49 Sudoeste 0 1000.7 -1.6 58
2019-04-08 00:00:00 12.8 28 Sur 45 Sur 0 1000.9 -1.2 60
2019-04-07 23:00:00 12.8 27 Sudoeste 51 Sur 0 1001.6 -0.8 64
2019-04-07 22:00:00 11.1 11 Sur 28 Este 0 1002.3 -0.2 77
2019-04-07 21:00:00 11.4 22 Este 33 Este 0 1002.1 -0.7 76
2019-04-07 20:00:00 11.7 26 Este 32 Este 0 1002.4 -0.7 74
2019-04-07 19:00:00 12.1 21 Este 27 Este 0 1002.5 -0.7 71
2019-04-07 18:00:00 12.5 16 Nordeste 22 Nordeste 0 1002.8 -1 69
2019-04-07 17:00:00 13.4 14 Nordeste 19 Nordeste 0 1003.1 -0.6 66
2019-04-07 16:00:00 13.2 13 Norte 19 Norte 0 1003.2 -0.3 63
2019-04-07 15:00:00 13.2 11 Noroeste 23 Oeste 0 1003.8 0.7 61
2019-04-07 14:00:00 13.4 17 Noroeste 31 Oeste 0 1003.7 1.2 60
2019-04-07 13:00:00 13.3 23 Oeste 37 Oeste 0 1003.5 1.7 60
2019-04-07 12:00:00 12.4 26 Oeste 44 Oeste 0 1003.1 2.1 61
2019-04-07 11:00:00 11.3 31 Oeste 49 Oeste 0 1002.5 2.3 66
2019-04-07 10:00:00 11 32 Oeste 51 Oeste 0 1001.8 2.6 70
2019-04-07 09:00:00 10.5 31 Oeste 51 Oeste 0 1001 2.5 72
2019-04-07 08:00:00 10.2 38 Oeste 57 Oeste 0 1000.2 2.4 74
2019-04-07 07:00:00 9.9 37 Oeste 56 Oeste 0 999.2 1.5 75
2019-04-07 06:00:00 9.8 37 Oeste 53 Oeste 0 998.5 1.2 76
2019-04-07 05:00:00 9.5 35 Oeste 53 Oeste 0 997.8 0.9 76
2019-04-07 04:00:00 8.6 23 Oeste 57 Oeste 0 997.7 1.2 77
2019-04-07 03:00:00 8.7 36 Oeste 58 Oeste 0.2 997.3 1.1 78
2019-04-07 02:00:00 9.4 32 Oeste 55 Oeste 0 996.9 0.7 77
2019-04-07 01:00:00 9.2 37 Oeste 50 Oeste 0 996.5 0.8 78
2019-04-07 00:00:00 9 21 Oeste 40 Oeste 0.2 996.2 1.3 82
2019-04-06 23:00:00 8.9 24 Oeste 36 Oeste 0.6 996.2 2.5 81
2019-04-06 22:00:00 9.7 10 Sudoeste 39 Oeste 0 995.7 2.8 77
2019-04-06 21:00:00 10 22 Oeste 37 Oeste 2.2 994.9 2.9 77
2019-04-06 20:00:00 10.9 30 Oeste 44 Noroeste 0 993.7 2.6 72
2019-04-06 19:00:00 12.8 5 Noroeste 10 Nordeste 0 992.9 2.3 63
2019-04-06 18:00:00 12.8 7 Nordeste 23 Este 0 992 2.1 63
2019-04-06 17:00:00 12.8 19 Nordeste 26 Nordeste 0 991.1 1.1 63
2019-04-06 16:00:00 13.1 21 Nordeste 32 Nordeste 0 990.6 0.3 62
2019-04-06 15:00:00 17.9 14 Sur 32 Sudoeste 0 989.9 -0.8 41
2019-04-06 14:00:00 16.1 21 Sur 39 Sur 0 990 -0.7 46
2019-04-06 13:00:00 15.1 24 Sur 41 Sur 0 990.3 -0.6 51
2019-04-06 12:00:00 13.1 15 Sur 33 Sur 0 990.7 -0.5 58
2019-04-06 11:00:00 13.6 21 Sur 35 Sur 0 990.7 -0.6 58
2019-04-06 10:00:00 11.3 15 Sur 27 Sur 0 990.9 -0.2 68
2019-04-06 09:00:00 8.5 17 Sur 24 Sur 0 991.2 -0.3 77
2019-04-06 08:00:00 6.7 14 Sur 18 Sur 0 991.3 -0.5 81
2019-04-06 07:00:00 7.6 14 Sur 20 Sur 0 991.1 -0.9 80
2019-04-06 06:00:00 7.7 13 Sur 17 Sur 0 991.5 -0.8 84
2019-04-06 05:00:00 7.4 14 Sur 20 Sur 0 991.8 -0.9 86
2019-04-06 04:00:00 7.6 12 Sur 16 Sur 0 992 -1 84
2019-04-06 03:00:00 8.5 13 Sur 17 Oeste 0 992.3 -0.6 82
2019-04-06 02:00:00 8.9 11 Sur 15 Noroeste 0 992.7 0.1 80
2019-04-06 01:00:00 9.9 12 Noroeste 28 Noroeste 2 993 1 76
2019-04-06 00:00:00 10.2 5 Noroeste 26 Norte 0 992.9 2 75
2019-04-05 23:00:00 10.8 8 Norte 13 Norte 0 992.6 2.2 82
2019-04-05 22:00:00 10.5 4 Sudeste 24 Este 0 992 1.7 80
2019-04-05 21:00:00 10.5 18 Este 31 Este 0 990.9 0.8 78
2019-04-05 20:00:00 11.1 24 Este 32 Este 0 990.4 0.7 76
2019-04-05 19:00:00 11.4 21 Este 29 Este 0 990.3 0.2 75
2019-04-05 18:00:00 11.7 19 Nordeste 27 Nordeste 0 990.1 -0.5 72
2019-04-05 17:00:00 12.4 17 Nordeste 21 Este 0 989.7 -0.7 72
2019-04-05 16:00:00 11.7 17 Nordeste 24 Norte 0 990.1 -0.5 76
2019-04-05 15:00:00 11.5 17 Norte 35 Norte 0 990.6 0.2 77
2019-04-05 14:00:00 11.8 17 Norte 26 Norte 0 990.4 0.8 75
2019-04-05 13:00:00 12.1 13 Norte 19 Noroeste 0 990.6 1 77
2019-04-05 12:00:00 11.1 12 Noroeste 22 Norte 0 990.4 1.1 76
2019-04-05 11:00:00 11.9 8 Norte 15 Noroeste 0 989.6 0.8 75
2019-04-05 10:00:00 10.9 8 Noroeste 17 Norte 0 989.6 1.4 71
2019-04-05 09:00:00 10.2 9 Sudoeste 30 Sudoeste 0 989.3 1.5 68
2019-04-05 08:00:00 10.5 18 Sudoeste 36 Sudoeste 0 988.8 0.7 62
2019-04-05 07:00:00 10.8 22 Sudoeste 46 Sur 0 988.2 -0.2 61
2019-04-05 06:00:00 10.9 26 Sur 45 Sur 0 987.8 -1 60
2019-04-05 05:00:00 10.9 24 Sur 41 Sur 0 988.1 -1.2 60
2019-04-05 04:00:00 11 27 Sur 50 Sudoeste 0 988.4 -1.8 60
2019-04-05 03:00:00 10.8 30 Sur 51 Sur 0 988.8 -1.8 62
2019-04-05 02:00:00 10.6 31 Sur 46 Sur 0.2 989.3 -1.4 65
2019-04-05 01:00:00 9.8 27 Sur 46 Sur 0.6 990.2 -0.7 70
2019-04-05 00:00:00 10.6 22 Sur 48 Sur 0.2 990.6 0.1 62
2019-04-04 23:00:00 11.2 28 Sur 46 Sur 0 990.7 -0.3 59
2019-04-04 22:00:00 12.6 22 Sur 37 Sudoeste 0 990.9 -0.5 53
2019-04-04 21:00:00 11.7 6 Sur 18 Sudeste 0 990.5 -1 67
2019-04-04 20:00:00 11.3 14 Este 31 Este 0 991 -1.3 74
2019-04-04 19:00:00 11.1 22 Este 34 Este 0 991.4 -1.5 72
2019-04-04 18:00:00 11.1 23 Este 30 Nordeste 0 991.5 -2.5 67
2019-04-04 17:00:00 11.6 19 Este 28 Este 0 992.3 -2.9 64
2019-04-04 16:00:00 11.8 18 Nordeste 24 Nordeste 0 992.9 -3.4 62
2019-04-04 15:00:00 12.5 17 Nordeste 22 Nordeste 0 994 -3.1 62
2019-04-04 14:00:00 13.7 7 Sudeste 21 Sur 0 995.2 -2.1 54
2019-04-04 13:00:00 12 13 Oeste 27 Oeste 0 996.3 -0.9 64
2019-04-04 12:00:00 10.7 17 Oeste 24 Oeste 0 997.1 -0.1 73
2019-04-04 11:00:00 7.8 11 Oeste 37 Sudoeste 0.2 997.3 0.4 81
2019-04-04 10:00:00 8.5 14 Sudoeste 44 Oeste 0 997.2 0.4 82
2019-04-04 09:00:00 7.6 32 Oeste 52 Oeste 0.4 997.2 -0.3 86
2019-04-04 08:00:00 7.4 30 Oeste 60 Oeste 0 996.9 -1.4 86
2019-04-04 07:00:00 6.7 42 Oeste 66 Oeste 1 996.8 -1.8 86
2019-04-04 06:00:00 5.7 25 Oeste 46 Oeste 2 997.5 -1.3 91
2019-04-04 05:00:00 5.2 26 Noroeste 45 Noroeste 6.6 998.3 -1 87
2019-04-04 04:00:00 4.7 13 Sudoeste 68 Oeste 2.8 998.6 -1.2 86
2019-04-04 03:00:00 5.1 23 Sudoeste 46 Sudoeste 0 998.8 -1.5 83
2019-04-04 02:00:00 4.5 21 Sudoeste 52 Oeste 0 999.3 -1.5 85
2019-04-04 01:00:00 5.6 13 Sudoeste 42 Oeste 0 999.8 -0.5 83
2019-04-04 00:00:00 5 15 Sudoeste 37 Noroeste 0 1000.3 0.1 83
2019-04-03 23:00:00 7.4 32 Noroeste 55 Noroeste 0.8 1000.8 0.5 76
2019-04-03 22:00:00 7.9 44 Noroeste 65 Noroeste 0 1000.3 -0.1 77
2019-04-03 21:00:00 7.5 26 Oeste 63 Noroeste 2.6 1000.2 -0.4 83
2019-04-03 20:00:00 8.8 32 Oeste 49 Oeste 0 1000.3 -0.9 77
2019-04-03 19:00:00 7.8 28 Oeste 74 Noroeste 0.4 1000.4 -1.1 78
2019-04-03 18:00:00 6.5 33 Noroeste 81 Noroeste 2 1000.6 -1 79
2019-04-03 17:00:00 9.9 32 Oeste 55 Noroeste 0 1001.2 -2 78
2019-04-03 16:00:00 9 33 Noroeste 64 Noroeste 0.6 1001.5 -0.9 83
2019-04-03 15:00:00 7.5 33 Oeste 51 Oeste 3.6 1001.6 -0.8 89
2019-04-03 14:00:00 5.3 21 Oeste 56 Oeste 7.4 1003.2 0.4 86
2019-04-03 13:00:00 7.7 38 Oeste 67 Oeste 1.8 1002.4 -0.8 84
2019-04-03 12:00:00 8.6 30 Oeste 48 Oeste 0 1002.4 -0.9 85
2019-04-03 11:00:00 7.5 20 Sudoeste 37 Sudoeste 0 1002.8 -0.6 87
2019-04-03 10:00:00 6.7 32 Oeste 75 Oeste 1.6 1003.2 -0.6 87
2019-04-03 09:00:00 7.3 23 Oeste 64 Oeste 1.2 1003.3 -0.8 91
2019-04-03 08:00:00 7.4 28 Oeste 49 Noroeste 3.4 1003.4 -1.2 87
2019-04-03 07:00:00 7.5 31 Noroeste 56 Oeste 4.2 1003.8 -1.6 88
2019-04-03 06:00:00 7.8 30 Oeste 55 Noroeste 1.8 1004.1 -2.2 87
2019-04-03 05:00:00 7.5 41 Noroeste 69 Noroeste 3 1004.6 -2.6 86
2019-04-03 04:00:00 9 25 Oeste 55 Oeste 1 1005.4 -2.5 88
2019-04-03 03:00:00 8.7 33 Oeste 57 Oeste 2.6 1006.3 -2.2 87
2019-04-03 02:00:00 9.4 15 Oeste 29 Oeste 0 1007.2 -1.4 87
2019-04-03 01:00:00 9.8 19 Oeste 35 Oeste 0 1007.9 -0.9 86
2019-04-03 00:00:00 9.3 20 Noroeste 39 Noroeste 0.8 1008.5 -0.1 87
2019-04-02 23:00:00 10.2 18 Noroeste 42 Noroeste 0.4 1008.6 0 86
2019-04-02 22:00:00 10.2 25 Noroeste 44 Noroeste 0.2 1008.8 0.3 85
2019-04-02 21:00:00 10.3 18 Oeste 36 Noroeste 0.8 1008.6 -0.4 84
2019-04-02 20:00:00 11.7 23 Noroeste 40 Noroeste 0 1008.6 -0.8 80
2019-04-02 19:00:00 11.9 21 Noroeste 37 Noroeste 0 1008.5 -1 82
2019-04-02 18:00:00 12.5 27 Noroeste 36 Noroeste 0.4 1009 -1.2 81
2019-04-02 17:00:00 12.8 17 Oeste 27 Noroeste 0 1009.4 -1.1 80
2019-04-02 16:00:00 13.7 19 Oeste 27 Oeste 0 1009.5 -1.5 77
2019-04-02 15:00:00 14.2 18 Oeste 26 Oeste 0 1010.2 -0.9 76
2019-04-02 14:00:00 14.2 17 Oeste 28 Oeste 0 1010.5 -0.4 77
2019-04-02 13:00:00 13.5 18 Oeste 28 Noroeste 0 1011 0.4 80
2019-04-02 12:00:00 13.7 19 Noroeste 28 Noroeste 0 1011.1 0.9 83
2019-04-02 11:00:00 13.3 16 Oeste 28 Noroeste 0 1010.9 1.1 85
2019-04-02 10:00:00 11.8 14 Oeste 27 Oeste 0 1010.6 1.4 89
2019-04-02 09:00:00 11.2 15 Oeste 23 Oeste 0 1010.2 1.1 89
2019-04-02 08:00:00 10.8 15 Sudoeste 24 Sudoeste 0 1009.8 0.8 88
2019-04-02 07:00:00 10.2 14 Sudoeste 26 Sudoeste 0 1009.2 0.2 87
2019-04-02 06:00:00 10.2 15 Sudoeste 23 Oeste 0 1009.1 -0.2 82
2019-04-02 05:00:00 11.5 13 Sudoeste 24 Sudoeste 0 1009 -0.5 78
2019-04-02 04:00:00 11.5 12 Sudoeste 17 Sudoeste 0 1009 -0.8 82
2019-04-02 03:00:00 11.5 13 Sur 19 Sur 0 1009.3 -0.5 83
2019-04-02 02:00:00 11.6 14 Sur 17 Sur 0 1009.5 -0.2 83
2019-04-02 01:00:00 12 10 Sudoeste 13 Sudoeste 0 1009.8 0.4 83
2019-04-02 00:00:00 12.1 9 Sudoeste 13 Sur 0 1009.8 1.1 85
2019-04-01 23:00:00 12.4 5 Sur 6 Sur 0 1009.7 1.5 87
2019-04-01 22:00:00 12.5 4 Sudoeste 6 Noroeste 0 1009.4 1.6 87
2019-04-01 21:00:00 12.8 5 Noroeste 14 Noroeste 0 1008.7 1 85
2019-04-01 20:00:00 13.5 12 Noroeste 17 Noroeste 0 1008.2 0.6 84
2019-04-01 19:00:00 14.4 8 Norte 14 Norte 0 1007.8 0 81
2019-04-01 18:00:00 14.8 9 Norte 14 Norte 0 1007.7 -0.3 80
2019-04-01 17:00:00 15.2 10 Nordeste 14 Nordeste 0 1007.6 -0.7 78
2019-04-01 16:00:00 14.8 9 Norte 13 Norte 0 1007.8 -0.6 79
2019-04-01 15:00:00 15 8 Norte 14 Norte 0 1008 -0.6 77
2019-04-01 14:00:00 14.6 7 Noroeste 17 Noroeste 0 1008.3 -0.1 79
2019-04-01 13:00:00 14.3 10 Noroeste 19 Noroeste 0 1008.4 0.5 78
2019-04-01 12:00:00 13.7 14 Oeste 19 Oeste 0 1008.6 1.1 81
2019-04-01 11:00:00 14.6 10 Oeste 15 Oeste 0 1008.4 1.3 79
2019-04-01 10:00:00 11.6 6 Oeste 12 Oeste 0 1007.9 1.1 82
2019-04-01 09:00:00 11.1 8 Oeste 10 Oeste 0 1007.5 0.7 80
2019-04-01 08:00:00 10.6 3 Nordeste 7 Este 0 1007.1 0.2 80
2019-04-01 07:00:00 10.7 5 Noroeste 9 Sur 0 1006.8 -0.3 78
2019-04-01 06:00:00 10.5 3 Sur 10 Sur 0 1006.8 -0.5 80
2019-04-01 05:00:00 9.4 8 Sur 12 Sur 0 1006.9 -0.6 84
2019-04-01 04:00:00 10.5 8 Sudoeste 11 Sudoeste 0 1007.1 -0.5 85
2019-04-01 03:00:00 10.5 8 Sur 11 Sur 0 1007.3 -0.4 89
2019-04-01 02:00:00 11.1 7 Sur 17 Sudeste 0 1007.5 -0.3 90
2019-04-01 01:00:00 11.4 13 Sudeste 18 Este 0 1007.6 0.2 89
2019-04-01 00:00:00 12.2 13 Este 22 Este 0 1007.7 0.9 88
2019-03-31 23:00:00 12.5 18 Este 24 Este 0 1007.8 1.1 85
2019-03-31 22:00:00 12.4 15 Este 20 Este 0 1007.4 0.8 76
2019-03-31 21:00:00 13 15 Este 24 Este 0 1006.8 0.6 75
2019-03-31 20:00:00 13.7 20 Este 35 Este 0 1006.7 0.3 80
2019-03-31 19:00:00 14.1 29 Este 39 Este 0 1006.6 -0.1 83
2019-03-31 18:00:00 14.9 25 Este 35 Este 0 1006.2 -1.1 80
2019-03-31 17:00:00 15.9 19 Este 26 Este 0 1006.4 -1.5 75
2019-03-31 16:00:00 16 16 Este 29 Este 0 1006.7 -1.7 76
2019-03-31 15:00:00 16.4 20 Este 30 Este 0 1007.3 -1.3 72
2019-03-31 14:00:00 16.2 17 Este 26 Este 0 1007.9 -0.7 72
2019-03-31 13:00:00 16.4 9 Este 15 Nordeste 0 1008.4 0 71
2019-03-31 12:00:00 15.3 8 Este 10 Este 0 1008.6 0.2 74
2019-03-31 11:00:00 13.6 8 Este 11 Nordeste 0 1008.6 0.3 81
2019-03-31 10:00:00 12.4 6 Sudeste 11 Sudeste 0 1008.4 0.2 89
2019-03-31 09:00:00 10.4 8 Sudeste 11 Este 0 1008.4 -0.1 93
2019-03-31 08:00:00 9.4 7 Sudeste 11 Sudeste 0 1008.3 -0.9 93
2019-03-31 07:00:00 9.7 9 Sudeste 12 Este 0 1008.2 -1.5 93
2019-03-31 06:00:00 9.9 7 Sudeste 11 Sudeste 0 1008.5 -1.9 92
2019-03-31 05:00:00 10.2 7 Sur 13 Sudeste 0 1009.2 -1.8 94
2019-03-31 03:00:00 11.2 9 Este 13 Este 0 1010.4 -0.9 94
2019-03-31 01:00:00 11.3 7 Este 10 Este 0 1011 -0.5 94
2019-03-31 00:00:00 11.4 7 Sudeste 8 Sudeste 0 1011.1 -0.1 93
2019-03-30 23:00:00 11.6 7 Sudeste 9 Sudeste 0 1011.3 0.4 92
2019-03-30 22:00:00 12.2 0 Calma 5 Oeste 0 1011.5 0.8 92
2019-03-30 21:00:00 12.2 6 Oeste 8 Oeste 0 1011.2 0.6 91
2019-03-30 20:00:00 12.8 4 Oeste 6 Oeste 0 1010.9 0.4 89
2019-03-30 19:00:00 13.5 4 Norte 10 Noroeste 0 1010.7 0 88
2019-03-30 18:00:00 14.2 6 Noroeste 11 Noroeste 0 1010.6 -0.2 87
2019-03-30 17:00:00 14.5 6 Norte 13 Noroeste 0 1010.5 -0.6 87
2019-03-30 16:00:00 14.7 6 Norte 11 Norte 0 1010.7 -0.8 88
2019-03-30 15:00:00 14.3 11 Norte 14 Norte 0 1010.8 -1.1 88
2019-03-30 14:00:00 15 12 Nordeste 17 Nordeste 0 1011.1 -1.1 89
2019-03-30 13:00:00 14.2 13 Nordeste 14 Nordeste 0 1011.5 -0.8 89
2019-03-30 12:00:00 14 6 Nordeste 11 Este 0 1011.9 -0.2 90
2019-03-30 11:00:00 13 5 Norte 9 Noroeste 0 1012.2 0.3 92
2019-03-30 10:00:00 13.1 4 Noroeste 15 Oeste 0 1012.3 0.7 92
2019-03-30 09:00:00 11.9 12 Oeste 17 Oeste 0 1012.1 0.7 95
2019-03-30 08:00:00 10.1 13 Oeste 17 Oeste 0 1011.9 0.6 94
2019-03-30 07:00:00 9.4 14 Oeste 19 Oeste 0 1011.6 0 94
2019-03-30 06:00:00 9.2 10 Oeste 12 Oeste 0 1011.4 -0.6 93
2019-03-30 05:00:00 10.4 4 Nordeste 10 Sudeste 0 1011.3 -1.1 93
2019-03-30 04:00:00 9.6 9 Sudeste 14 Sudeste 0 1011.6 -1.2 93
2019-03-30 03:00:00 9.8 9 Sudeste 16 Sur 0 1012 -1.1 93
2019-03-30 02:00:00 9.9 9 Sur 12 Sur 0 1012.4 -1 92
2019-03-30 01:00:00 10.8 3 Este 4 Nordeste 0 1012.8 -1 91
2019-03-30 00:00:00 10.7 0 Calma 2 Noroeste 0 1013.1 -0.8 90
2019-03-29 23:00:00 11.1 0 Calma 5 Este 0 1013.4 -0.3 89
2019-03-29 22:00:00 11.4 4 Este 8 Este 0 1013.8 0.3 88
2019-03-29 21:00:00 11.4 6 Este 10 Nordeste 0 1013.9 0.7 86
2019-03-29 20:00:00 11.7 7 Nordeste 15 Nordeste 0 1013.7 0.3 84
2019-03-29 19:00:00 12.6 12 Nordeste 24 Nordeste 0 1013.5 -0.3 81
2019-03-29 18:00:00 13.4 18 Nordeste 25 Este 0 1013.2 -1.2 78
2019-03-29 17:00:00 14 18 Este 27 Este 0 1013.4 -1.7 76
2019-03-29 16:00:00 14.4 18 Este 27 Nordeste 0 1013.8 -1.8 74
2019-03-29 15:00:00 14.5 21 Este 27 Este 0 1014.4 -1.9 74
2019-03-29 14:00:00 14.6 19 Nordeste 24 Este 0 1015.1 -1.8 70
2019-03-29 13:00:00 14.5 17 Nordeste 23 Nordeste 0 1015.6 -1.6 69
2019-03-29 12:00:00 13.6 17 Nordeste 23 Nordeste 0 1016.3 -1.3 71
2019-03-29 11:00:00 12.9 10 Nordeste 13 Nordeste 0 1016.9 -0.8 73
2019-03-29 10:00:00 13.3 6 Este 13 Este 0 1017.2 -0.7 71
2019-03-29 09:00:00 12 8 Sudeste 13 Sudeste 0 1017.6 -0.2 74
2019-03-29 08:00:00 9.4 11 Sudeste 16 Sudeste 0 1017.7 -0.6 81
2019-03-29 07:00:00 7.8 15 Sudeste 17 Sudeste 0 1017.9 -0.9 85
2019-03-29 06:00:00 8.1 11 Sudeste 14 Sudeste 0 1017.8 -1.8 85
2019-03-29 05:00:00 8.3 8 Sur 11 Sudeste 0 1018.3 -2 85
2019-03-29 04:00:00 8.4 7 Sudeste 10 Sur 0 1018.8 -1.9 85
2019-03-29 03:00:00 8.9 8 Sudeste 12 Sudeste 0 1019.6 -1.6 85
2019-03-29 02:00:00 8.8 11 Sur 15 Sur 0 1020.3 -1.4 88
2019-03-29 01:00:00 8.8 11 Sudeste 15 Sudeste 0 1020.7 -1.2 87
2019-03-29 00:00:00 8.8 11 Sudeste 14 Sudeste 0 1021.2 -0.8 86
2019-03-28 23:00:00 9.1 11 Sudeste 15 Este 0 1021.7 -0.1 85
2019-03-28 22:00:00 10.1 10 Este 16 Este 0 1021.9 0 84
2019-03-28 21:00:00 10.2 11 Este 23 Este 0 1022 0.2 82
2019-03-28 20:00:00 10.9 20 Este 25 Este 0 1021.8 -0.2 80
2019-03-28 19:00:00 11.5 18 Este 27 Nordeste 0 1021.9 -0.7 78
2019-03-28 18:00:00 12.3 19 Nordeste 24 Nordeste 0 1021.8 -1.2 76
2019-03-28 17:00:00 12.8 19 Nordeste 26 Nordeste 0 1022 -1.6 75
2019-03-28 16:00:00 13.4 18 Nordeste 24 Nordeste 0 1022.6 -1.6 73
2019-03-28 15:00:00 13.7 17 Nordeste 21 Nordeste 0 1023 -1.8 73
2019-03-28 14:00:00 13.6 14 Nordeste 19 Nordeste 0 1023.6 -1.3 76
2019-03-28 13:00:00 13.1 11 Norte 14 Norte 0 1024.2 -0.6 75
2019-03-28 12:00:00 13.2 8 Norte 12 Norte 0 1024.8 0 73
2019-03-28 11:00:00 12.6 6 Noroeste 12 Sudoeste 0 1024.9 0.5 73
2019-03-28 10:00:00 12.7 8 Sudoeste 12 Sur 0 1024.8 0.7 69
2019-03-28 09:00:00 11 8 Sudoeste 17 Sudoeste 0 1024.8 0.8 74
2019-03-28 08:00:00 8.7 14 Sur 18 Sur 0 1024.4 0.5 76
2019-03-28 07:00:00 8 14 Sudoeste 19 Sudoeste 0 1024.1 0.2 77
2019-03-28 06:00:00 8.3 12 Sudoeste 18 Sudoeste 0 1024 0 77
2019-03-28 05:00:00 8.3 15 Sudoeste 19 Sur 0 1023.9 -0.5 76
2019-03-28 04:00:00 8.7 14 Sudoeste 19 Sudoeste 0 1023.9 -1 77
2019-03-28 03:00:00 9 12 Sudoeste 18 Sudoeste 0 1024 -0.9 77
2019-03-28 02:00:00 8.9 11 Sudoeste 16 Sudoeste 0 1024.4 -0.5 76
2019-03-28 01:00:00 9.5 10 Sudoeste 14 Sudoeste 0 1024.9 0 76
2019-03-28 00:00:00 9.5 10 Sur 12 Sur 0 1024.9 0.3 77
2019-03-27 23:00:00 9.4 8 Sudeste 11 Sudeste 0 1024.9 0.9 77
2019-03-27 22:00:00 9.5 8 Sudeste 16 Sudeste 0 1024.9 1.3 75
2019-03-27 21:00:00 10.4 15 Este 24 Este 0 1024.6 1.3 72
2019-03-27 20:00:00 10.4 18 Este 27 Este 0 1024 0.8 71
2019-03-27 19:00:00 11 18 Nordeste 25 Nordeste 0 1023.6 0.5 69
2019-03-27 18:00:00 11.7 19 Nordeste 30 Nordeste 0 1023.3 0 69
2019-03-27 17:00:00 12.1 22 Nordeste 31 Nordeste 0 1023.2 -0.3 68
2019-03-27 16:00:00 12.5 23 Nordeste 29 Nordeste 0 1023.1 -0.5 68
2019-03-27 15:00:00 12.9 19 Nordeste 24 Nordeste 0 1023.3 -0.4 67
2019-03-27 14:00:00 13.3 19 Nordeste 27 Nordeste 0 1023.5 0.1 66
2019-03-27 13:00:00 13.9 17 Nordeste 25 Este 0 1023.6 0.6 65
2019-03-27 12:00:00 13.5 14 Este 18 Este 0 1023.7 1.1 69
2019-03-27 11:00:00 13 6 Este 12 Este 0 1023.4 1.2 70
2019-03-27 10:00:00 11.9 6 Nordeste 8 Nordeste 0 1023 1.5 74
2019-03-27 09:00:00 10.9 2 Norte 9 Sur 0 1022.6 1.4 76
2019-03-27 08:00:00 8.5 8 Sur 14 Sur 0 1022.2 1.2 81
2019-03-27 07:00:00 7.1 13 Sur 15 Sur 0 1021.5 0.4 83
2019-03-27 06:00:00 8.1 10 Este 18 Este 0 1021.2 -0.4 83
2019-03-27 05:00:00 8.2 8 Sudeste 13 Este 0 1021 -0.7 80
2019-03-27 04:00:00 9 4 Este 7 Este 0 1021.1 -1 76
2019-03-27 03:00:00 8.9 4 Este 5 Este 0 1021.6 -0.5 75
2019-03-27 02:00:00 8.9 5 Sudeste 10 Sur 0 1021.7 -0.5 73
2019-03-27 01:00:00 9.1 9 Sur 13 Sur 0 1022.1 0.1 71
2019-03-27 00:00:00 9.5 12 Sur 16 Sur 0 1022.1 0.1 70